Terminal Aerodrome Forecast
Issued by NWS

Home | Current Version | Previous Version | Text Only | Print | Product List | Glossary On
Versions: 1 2 3 4 5 6 7 8 9 10 11 12 13 14 15
000
FTUS44 KCRP 272300
TAFLRD
TAF
KLRD 272329Z 2800/2824 14017G23KT P6SM FEW080
     FM280400 15011KT P6SM SKC
     FM281400 15015KT P6SM SCT020
     FM282200 13015G20KT P6SM FEW080=

USA.gov is the U.S. government's official web portal to all federal, state and local government web resources and services.